D/T METAR WX W/DIR W/SPE G/SPE TEMP DEWP
16/01/19 03:50 EGJB 160350Z 20017KT 9999 BKN012 07/05 Q1013 SSW (200°) 19.6mph 7°C 5°C
16/01/19 02:50 EGJB 160250Z 21016KT 9999 BKN014 08/05 Q1014 SSW (210°) 18.4mph 8°C 5°C
16/01/19 01:50 EGJB 160150Z 20016KT 9999 BKN014 08/05 Q1015 SSW (200°) 18.4mph 8°C 5°C
16/01/19 00:50 EGJB 160050Z 21014KT 9999 BKN014 07/05 Q1016 SSW (210°) 16.1mph 7°C 5°C
15/01/19 23:50 EGJB 152350Z 21012KT 9999 BKN014 08/05 Q1017 SSW (210°) 13.8mph 8°C 5°C
15/01/19 22:50 EGJB 152250Z 22014KT 9999 SCT015 BKN020 08/05 Q1017 SW (220°) 16.1mph 8°C 5°C
15/01/19 21:50 EGJB 152150Z 22015KT 9999 SCT015 BKN022 08/05 Q1018 SW (220°) 17.3mph 8°C 5°C
15/01/19 20:50 EGJB 152050Z 22013KT 9999 FEW008 SCT012 BKN020 08/06 Q1018 SW (220°) 15.0mph 8°C 6°C
15/01/19 20:20 EGJB 152020Z 22013KT 9999 VCSH FEW008 BKN012 08/05 Q1019 VCSH SW (220°) 15.0mph 8°C 5°C
15/01/19 19:50 EGJB 151950Z 22013KT 9999 VCSH FEW006 SCT008 BKN011 08/06 Q1019 VCSH SW (220°) 15.0mph 8°C 6°C
15/01/19 18:50 EGJB 151850Z 23012KT 9000 -DZ SCT004 BKN006 07/07 Q1019 REDZ -DZ SW (230°) 13.8mph 7°C 7°C
15/01/19 18:20 EGJB 151820Z 23012KT 9999 -DZ BKN005 08/07 Q1020 -DZ SW (230°) 13.8mph 8°C 7°C
15/01/19 17:50 EGJB 151750Z 22013KT 9999 -DZ BKN005 08/07 Q1020 -DZ SW (220°) 15.0mph 8°C 7°C
15/01/19 17:20 EGJB 151720Z 22013KT 9999 -DZ BKN005 08/07 Q1020 -DZ SW (220°) 15.0mph 8°C 7°C
15/01/19 16:50 EGJB 151650Z 22014KT 9999 -DZ SCT005 BKN007 08/07 Q1020 -DZ SW (220°) 16.1mph 8°C 7°C
15/01/19 16:20 EGJB 151620Z 23013KT 9999 -DZ FEW005 BKN006 08/07 Q1020 -DZ SW (230°) 15.0mph 8°C 7°C
15/01/19 15:50 EGJB 151550Z 23013KT 9999 -DZ FEW005 BKN007 08/07 Q1020 -DZ SW (230°) 15.0mph 8°C 7°C
15/01/19 15:20 EGJB 151520Z 24012KT 9999 -DZ FEW005 BKN007 BKN025 08/07 Q1021 -DZ WSW (240°) 13.8mph 8°C 7°C
15/01/19 14:20 EGJB 151420Z 24012KT 9999 VCSH FEW005 SCT012 BKN024 08/07 Q1021 VCSH WSW (240°) 13.8mph 8°C 7°C
15/01/19 13:50 EGJB 151350Z 25008KT 9999 VCSH SCT008 SCT012 BKN025 08/07 Q1021 VCSH WSW (250°) 9.2mph 8°C 7°C
15/01/19 13:20 EGJB 151320Z 23008KT 9999 VCSH SCT008 SCT012 BKN028 08/08 Q1022 VCSH SW (230°) 9.2mph 8°C 8°C
15/01/19 12:50 EGJB 151250Z 24009KT 9999 VCSH FEW008 BKN012 BKN020 09/07 Q1022 VCSH WSW (240°) 10.4mph 9°C 7°C
15/01/19 12:20 EGJB 151220Z 25010KT 9999 VCSH FEW008 BKN025 09/07 Q1022 VCSH WSW (250°) 11.5mph 9°C 7°C
15/01/19 11:50 EGJB 151150Z 24007KT 9999 VCSH FEW006 BKN012 BKN024 08/07 Q1023 VCSH WSW (240°) 8.1mph 8°C 7°C
15/01/19 11:20 EGJB 151120Z 24009KT 9999 FEW007 SCT012 BKN024 08/08 Q1023 WSW (240°) 10.4mph 8°C 8°C
15/01/19 10:50 EGJB 151050Z 24007KT 9999 FEW008 SCT012 BKN024 08/07 Q1023 WSW (240°) 8.1mph 8°C 7°C
15/01/19 10:20 EGJB 151020Z 26008KT 7000 -RA SCT007 BKN012 08/07 Q1024 -RA W (260°) 9.2mph 8°C 7°C
15/01/19 09:50 EGJB 150950Z 25007KT 9999 FEW008 BKN024 08/06 Q1024 WSW (250°) 8.1mph 8°C 6°C
15/01/19 09:20 EGJB 150920Z 26006KT 9999 FEW008 BKN024 08/06 Q1024 W (260°) 6.9mph 8°C 6°C
15/01/19 08:50 EGJB 150850Z 26007KT 9999 FEW012 BKN024 08/06 Q1024 W (260°) 8.1mph 8°C 6°C
15/01/19 08:20 EGJB 150820Z 27006KT 9999 FEW008 BKN022 07/06 Q1024 W (270°) 6.9mph 7°C 6°C
15/01/19 07:50 EGJB 150750Z 27005KT 9999 FEW008 BKN022 07/06 Q1024 W (270°) 5.8mph 7°C 6°C
15/01/19 07:20 EGJB 150720Z 27008KT 9999 -RA FEW008 SCT015 BKN020 07/06 Q1024 -RA W (270°) 9.2mph 7°C 6°C
15/01/19 06:50 EGJB 150650Z 28006KT 9999 -RA FEW015 BKN020 08/06 Q1024 -RA W (280°) 6.9mph 8°C 6°C
15/01/19 06:20 EGJB 150620Z 28007KT 9999 -RA FEW015 BKN020 08/06 Q1024 -RA W (280°) 8.1mph 8°C 6°C
15/01/19 05:50 EGJB 150550Z 26007KT 9999 -RA FEW015 BKN020 08/05 Q1024 -RA W (260°) 8.1mph 8°C 5°C
15/01/19 05:20 EGJB 150520Z 28005KT 9999 BKN020 08/05 Q1024 W (280°) 5.8mph 8°C 5°C
15/01/19 04:50 EGJB 150450Z 27005KT 9999 FEW020 BKN022 08/05 Q1024 W (270°) 5.8mph 8°C 5°C
15/01/19 04:20 EGJB 150420Z 27007KT 9999 BKN023 08/04 Q1024 W (270°) 8.1mph 8°C 4°C
15/01/19 03:50 EGJB 150350Z 28007KT 9999 BKN023 08/04 Q1024 W (280°) 8.1mph 8°C 4°C
15/01/19 02:50 EGJB 150250Z 29004KT 9999 BKN026 08/03 Q1025 WNW (290°) 4.6mph 8°C 3°C
15/01/19 01:50 EGJB 150150Z 30004KT 9999 BKN028 08/03 Q1025 WNW (300°) 4.6mph 8°C 3°C
15/01/19 00:50 EGJB 150050Z 30004KT 280V360 9999 BKN030 08/02 Q1025 WNW (300°) 4.6mph 8°C 2°C
14/01/19 23:50 EGJB 142350Z 31005KT 9999 BKN032 08/02 Q1025 NW (310°) 5.8mph 8°C 2°C
14/01/19 22:50 EGJB 142250Z 28004KT 9999 BKN033 08/02 Q1025 W (280°) 4.6mph 8°C 2°C
14/01/19 21:50 EGJB 142150Z 29005KT 9999 BKN033 08/02 Q1025 WNW (290°) 5.8mph 8°C 2°C
14/01/19 20:50 EGJB 142050Z 30004KT 9999 BKN031 08/03 Q1025 WNW (300°) 4.6mph 8°C 3°C
14/01/19 20:20 EGJB 142020Z 32004KT 9999 BKN034 08/02 Q1026 NW (320°) 4.6mph 8°C 2°C
14/01/19 19:50 EGJB 141950Z 31005KT 9999 BKN034 08/02 Q1026 NW (310°) 5.8mph 8°C 2°C
14/01/19 19:20 EGJB 141920Z 33004KT 310V020 9999 BKN035 08/02 Q1026 NNW (330°) 4.6mph 8°C 2°C
14/01/19 18:50 EGJB 141850Z 33003KT 9999 BKN032 08/03 Q1026 NNW (330°) 3.5mph 8°C 3°C
14/01/19 18:20 EGJB 141820Z 35005KT 9999 BKN034 08/02 Q1026 N (350°) 5.8mph 8°C 2°C
14/01/19 17:50 EGJB 141750Z 34006KT 9999 BKN034 08/02 Q1025 NNW (340°) 6.9mph 8°C 2°C
14/01/19 17:20 EGJB 141720Z 34005KT 300V020 9999 BKN032 08/02 Q1025 NNW (340°) 5.8mph 8°C 2°C
14/01/19 16:50 EGJB 141650Z 32005KT 290V350 9999 BKN032 08/02 Q1025 NW (320°) 5.8mph 8°C 2°C
14/01/19 16:20 EGJB 141620Z 31006KT 280V350 9999 BKN032 08/02 Q1025 NW (310°) 6.9mph 8°C 2°C
14/01/19 15:50 EGJB 141550Z 31007KT 9999 BKN032 08/02 Q1025 NW (310°) 8.1mph 8°C 2°C
14/01/19 15:20 EGJB 141520Z 32007KT 9999 BKN032 08/02 Q1025 NW (320°) 8.1mph 8°C 2°C
14/01/19 14:50 EGJB 141450Z 34008KT 9999 BKN030 09/03 Q1024 NNW (340°) 9.2mph 9°C 3°C
14/01/19 14:20 EGJB 141420Z 32009KT 9999 BKN032 09/01 Q1025 NW (320°) 10.4mph 9°C 1°C
14/01/19 13:50 EGJB 141350Z 33008KT 9999 BKN032 09/02 Q1025 NNW (330°) 9.2mph 9°C 2°C
14/01/19 12:50 EGJB 141250Z 34009KT 9999 BKN032 09/02 Q1024 NNW (340°) 10.4mph 9°C 2°C
14/01/19 12:20 EGJB 141220Z 33010KT 9999 FEW030 BKN032 09/02 Q1024 NNW (330°) 11.5mph 9°C 2°C
14/01/19 11:50 EGJB 141150Z 34010KT 9999 FEW030 BKN034 09/02 Q1024 NNW (340°) 11.5mph 9°C 2°C
14/01/19 11:20 EGJB 141120Z 32011KT 9999 FEW030 BKN034 09/02 Q1024 NW (320°) 12.7mph 9°C 2°C
14/01/19 10:50 EGJB 141050Z 32010KT 9999 BKN032 09/02 Q1024 NW (320°) 11.5mph 9°C 2°C
14/01/19 10:20 EGJB 141020Z 34011KT 9999 BKN032 09/02 Q1024 NNW (340°) 12.7mph 9°C 2°C
14/01/19 09:50 EGJB 140950Z 33012KT 9999 BKN032 09/02 Q1024 NNW (330°) 13.8mph 9°C 2°C
14/01/19 09:20 EGJB 140920Z 33010KT 9999 BKN032 09/02 Q1024 NNW (330°) 11.5mph 9°C 2°C
14/01/19 08:50 EGJB 140850Z 34011KT 9999 BKN032 09/02 Q1024 NNW (340°) 12.7mph 9°C 2°C
14/01/19 08:20 EGJB 140820Z 32010KT 9999 FEW030 BKN034 09/01 Q1023 NW (320°) 11.5mph 9°C 1°C
14/01/19 07:50 EGJB 140750Z 33011KT 9999 FEW030 BKN034 09/01 Q1023 NNW (330°) 12.7mph 9°C 1°C
14/01/19 07:20 EGJB 140720Z 34013KT 9999 FEW030 BKN034 09/01 Q1022 NNW (340°) 15.0mph 9°C 1°C
14/01/19 06:50 EGJB 140650Z 33013KT 9999 BKN034 09/01 Q1022 NNW (330°) 15.0mph 9°C 1°C
14/01/19 06:20 EGJB 140620Z 33012KT 9999 BKN033 09/01 Q1022 NNW (330°) 13.8mph 9°C 1°C
14/01/19 05:50 EGJB 140550Z 34012KT 9999 BKN032 09/02 Q1022 NNW (340°) 13.8mph 9°C 2°C
14/01/19 04:50 EGJB 140450Z 32010G20KT 290V010 9999 BKN031 09/02 Q1022 NW (320°) 11.5mph 23.0mph 9°C 2°C
14/01/19 04:20 EGJB 140420Z 33016KT 9999 BKN033 09/01 Q1021 NNW (330°) 18.4mph 9°C 1°C
14/01/19 03:50 EGJB 140350Z 33015KT 9999 FEW025 BKN033 09/02 Q1021 NNW (330°) 17.3mph 9°C 2°C
14/01/19 02:50 EGJB 140250Z 33016KT 9999 FEW024 BKN032 09/03 Q1021 NNW (330°) 18.4mph 9°C 3°C
14/01/19 01:50 EGJB 140150Z 32014KT 9999 FEW020 BKN033 10/04 Q1020 NW (320°) 16.1mph 10°C 4°C
14/01/19 00:50 EGJB 140050Z 32013KT 9999 FEW018 BKN028 10/07 Q1020 NW (320°) 15.0mph 10°C 7°C
13/01/19 23:50 EGJB 132350Z 30016KT 9999 FEW011 SCT030 10/08 Q1019 WNW (300°) 18.4mph 10°C 8°C
13/01/19 22:50 EGJB 132250Z 30017G27KT 9999 FEW010 BKN037 11/09 Q1019 WNW (300°) 19.6mph 31.1mph 11°C 9°C
13/01/19 21:50 EGJB 132150Z 29017KT 9999 FEW007 BKN011 10/09 Q1019 WNW (290°) 19.6mph 10°C 9°C
13/01/19 20:50 EGJB 132050Z 29015KT 9999 FEW007 BKN009 10/09 Q1019 WNW (290°) 17.3mph 10°C 9°C
13/01/19 20:20 EGJB 132020Z 29016KT 9999 FEW007 BKN009 10/09 Q1019 WNW (290°) 18.4mph 10°C 9°C
13/01/19 19:50 EGJB 131950Z 29015KT 9999 -RA FEW007 BKN010 10/09 Q1019 -RA WNW (290°) 17.3mph 10°C 9°C
13/01/19 18:50 EGJB 131850Z 29018G28KT 9999 FEW009 BKN010 10/09 Q1019 WNW (290°) 20.7mph 32.2mph 10°C 9°C
13/01/19 18:20 EGJB 131820Z 29021KT 9999 BKN012 10/08 Q1019 WNW (290°) 24.2mph 10°C 8°C
13/01/19 17:50 EGJB 131750Z 29019KT 9999 FEW010 BKN012 10/08 Q1019 WNW (290°) 21.9mph 10°C 8°C
13/01/19 17:20 EGJB 131720Z 29021G31KT 9999 FEW009 SCT012 10/08 Q1019 WNW (290°) 24.2mph 35.7mph 10°C 8°C
13/01/19 16:50 EGJB 131650Z 29022KT 9999 FEW009 SCT012 10/08 Q1018 WNW (290°) 25.3mph 10°C 8°C
13/01/19 16:20 EGJB 131620Z 28019KT 9999 FEW009 SCT012 10/08 Q1019 W (280°) 21.9mph 10°C 8°C
13/01/19 15:50 EGJB 131550Z 28020KT 9999 FEW011 SCT014 10/08 Q1019 W (280°) 23.0mph 10°C 8°C
13/01/19 14:50 EGJB 131450Z 29018KT 9999 FEW011 BKN013 10/08 Q1019 WNW (290°) 20.7mph 10°C 8°C
13/01/19 14:20 EGJB 131420Z 28020KT 9999 FEW011 BKN014 10/08 Q1019 W (280°) 23.0mph 10°C 8°C
13/01/19 13:50 EGJB 131350Z 28019KT 9999 FEW011 BKN014 10/07 Q1019 W (280°) 21.9mph 10°C 7°C
13/01/19 13:20 EGJB 131320Z 27019KT 9999 FEW011 BKN013 10/08 Q1020 W (270°) 21.9mph 10°C 8°C
13/01/19 12:50 EGJB 131250Z 28019KT 9999 BKN013 10/07 Q1021 W (280°) 21.9mph 10°C 7°C
13/01/19 11:50 EGJB 131150Z 28019KT 9999 FEW009 BKN011 10/08 Q1021 W (280°) 21.9mph 10°C 8°C
13/01/19 11:20 EGJB 131120Z 28019KT 9999 FEW008 BKN011 10/08 Q1021 W (280°) 21.9mph 10°C 8°C
13/01/19 10:50 EGJB 131050Z 28022KT 9999 FEW008 BKN011 10/08 Q1022 W (280°) 25.3mph 10°C 8°C
13/01/19 10:20 EGJB 131020Z 28025KT 9999 FEW010 BKN013 10/08 Q1022 W (280°) 28.8mph 10°C 8°C
13/01/19 09:20 EGJB 130920Z 28015KT 9999 FEW007 BKN009 10/08 Q1022 W (280°) 17.3mph 10°C 8°C
13/01/19 08:50 EGJB 130850Z 28020G30KT 9999 FEW008 BKN010 10/08 Q1022 W (280°) 23.0mph 34.5mph 10°C 8°C
13/01/19 08:20 EGJB 130820Z 28020G31KT 9999 BKN010 10/08 Q1022 W (280°) 23.0mph 35.7mph 10°C 8°C
13/01/19 07:50 EGJB 130750Z 28020KT 9999 FEW007 BKN010 10/08 Q1022 W (280°) 23.0mph 10°C 8°C
13/01/19 07:20 EGJB 130720Z 28020KT 9999 VCSH FEW005 BKN008 10/08 Q1023 VCSH W (280°) 23.0mph 10°C 8°C
13/01/19 06:50 EGJB 130650Z 28021KT 9999 VCSH FEW003 BKN005 10/09 Q1023 VCSH W (280°) 24.2mph 10°C 9°C
13/01/19 06:20 EGJB 130620Z 28019KT 9999 -DZ FEW002 SCT003 BKN004 10/10 Q1023 -DZ W (280°) 21.9mph 10°C 10°C
13/01/19 05:50 EGJB 130550Z 27020KT 8000 -DZ FEW002 BKN003 10/10 Q1023 -DZ W (270°) 23.0mph 10°C 10°C
13/01/19 05:20 EGJB 130520Z 27017KT 9999 -DZ FEW002 SCT003 BKN004 10/09 Q1023 -DZ W (270°) 19.6mph 10°C 9°C
13/01/19 04:20 EGJB 130420Z 28017KT 9999 FEW003 SCT004 BKN005 10/09 Q1024 W (280°) 19.6mph 10°C 9°C
13/01/19 03:50 EGJB 130350Z 28014KT 9999 FEW004 SCT005 BKN006 10/09 Q1024 W (280°) 16.1mph 10°C 9°C
13/01/19 02:50 EGJB 130250Z 28014KT 9999 BKN006 10/09 Q1024 W (280°) 16.1mph 10°C 9°C
13/01/19 01:50 EGJB 130150Z 28015KT 9999 SCT006 10/09 Q1025 W (280°) 17.3mph 10°C 9°C
13/01/19 00:50 EGJB 130050Z 29012KT 9999 BKN008 10/09 Q1025 WNW (290°) 13.8mph 10°C 9°C
12/01/19 23:50 EGJB 122350Z 30013KT 9999 SCT008 10/09 Q1026 WNW (300°) 15.0mph 10°C 9°C
12/01/19 22:50 EGJB 122250Z 29015KT 9999 SCT009 10/08 Q1026 WNW (290°) 17.3mph 10°C 8°C
12/01/19 21:50 EGJB 122150Z 30016KT 9999 BKN010 10/08 Q1026 WNW (300°) 18.4mph 10°C 8°C
12/01/19 20:50 EGJB 122050Z 30016KT 9999 BKN014 10/08 Q1026 WNW (300°) 18.4mph 10°C 8°C
12/01/19 20:20 EGJB 122020Z 30016KT 9999 BKN014 10/07 Q1026 WNW (300°) 18.4mph 10°C 7°C
12/01/19 19:50 EGJB 121950Z 30016KT 9999 BKN014 10/07 Q1026 WNW (300°) 18.4mph 10°C 7°C
12/01/19 19:20 EGJB 121920Z 30017KT 9999 BKN016 10/07 Q1026 WNW (300°) 19.6mph 10°C 7°C
12/01/19 18:50 EGJB 121850Z 30017KT 9999 BKN015 10/07 Q1026 WNW (300°) 19.6mph 10°C 7°C
12/01/19 18:20 EGJB 121820Z 31016KT 9999 FEW010 BKN015 10/07 Q1026 NW (310°) 18.4mph 10°C 7°C
12/01/19 17:50 EGJB 121750Z 30015KT 9999 FEW010 BKN021 09/07 Q1026 WNW (300°) 17.3mph 9°C 7°C
12/01/19 17:20 EGJB 121720Z 29016KT 9999 FEW007 SCT022 10/08 Q1025 WNW (290°) 18.4mph 10°C 8°C
12/01/19 16:20 EGJB 121620Z 29014KT 9999 VCSH FEW004 BKN010 BKN028 10/09 Q1026 VCSH WNW (290°) 16.1mph 10°C 9°C
12/01/19 15:50 EGJB 121550Z 29016KT 9999 FEW004 SCT009 BKN025 10/09 Q1026 WNW (290°) 18.4mph 10°C 9°C
12/01/19 15:20 EGJB 121520Z 29016KT 9999 -DZ FEW003 SCT007 BKN019 10/09 Q1026 -DZ WNW (290°) 18.4mph 10°C 9°C
12/01/19 14:50 EGJB 121450Z 29017KT 9999 -RADZ BKN003 10/09 Q1026 REDZ -RA -DZ WNW (290°) 19.6mph 10°C 9°C
12/01/19 14:20 EGJB 121420Z 29017KT 9999 VCSH SCT005 SCT009 BKN015 10/09 Q1026 VCSH WNW (290°) 19.6mph 10°C 9°C
12/01/19 13:50 EGJB 121350Z 29017KT 9999 VCSH SCT005 BKN015 10/09 Q1026 VCSH WNW (290°) 19.6mph 10°C 9°C
12/01/19 13:20 EGJB 121320Z 29017KT 9999 VCSH BKN005 BKN010 10/09 Q1027 VCSH WNW (290°) 19.6mph 10°C 9°C
12/01/19 12:50 EGJB 121250Z 29015KT 9999 VCSH FEW005 BKN010 10/09 Q1027 VCSH WNW (290°) 17.3mph 10°C 9°C
12/01/19 12:20 EGJB 121220Z 28015KT 9999 VCSH FEW005 SCT010 BKN015 10/09 Q1027 VCSH W (280°) 17.3mph 10°C 9°C
12/01/19 11:20 EGJB 121120Z 29014KT 9999 -RADZ FEW006 SCT010 BKN015 10/09 Q1028 -RA -DZ WNW (290°) 16.1mph 10°C 9°C
12/01/19 10:50 EGJB 121050Z 28016KT 9999 VCSH FEW006 BKN024 10/09 Q1028 VCSH W (280°) 18.4mph 10°C 9°C
12/01/19 09:50 EGJB 120950Z 29014KT 9999 -RADZ FEW005 BKN010 10/08 Q1029 -RA -DZ WNW (290°) 16.1mph 10°C 8°C
12/01/19 09:20 EGJB 120920Z 29015KT 9999 FEW005 SCT010 BKN020 09/08 Q1029 WNW (290°) 17.3mph 9°C 8°C
12/01/19 08:20 EGJB 120820Z 29014KT 9999 -RA FEW008 SCT016 BKN020 10/07 Q1029 -RA WNW (290°) 16.1mph 10°C 7°C
12/01/19 07:50 EGJB 120750Z 29016KT 9999 -RA FEW007 BKN020 10/07 Q1029 -RA WNW (290°) 18.4mph 10°C 7°C